createdAt,value
2017-11-24T00:01:42.366Z,4.80
2017-11-24T00:04:10.607Z,5.47
2017-11-24T00:06:38.086Z,14.03
2017-11-24T00:09:06.334Z,5.63
2017-11-24T00:11:33.835Z,8.50
2017-11-24T00:14:02.086Z,4.60
2017-11-24T00:16:29.582Z,5.23
2017-11-24T00:18:57.057Z,7.00
2017-11-24T00:21:24.571Z,8.63
2017-11-24T00:23:52.070Z,7.40
2017-11-24T00:26:19.565Z,12.10
2017-11-24T00:28:47.054Z,13.87
2017-11-24T00:31:15.296Z,11.20
2017-11-24T00:33:42.765Z,9.77
2017-11-24T00:36:11.010Z,9.53
2017-11-24T00:38:38.482Z,11.30
2017-11-24T00:41:05.967Z,6.90
2017-11-24T00:43:34.202Z,12.70
2017-11-24T00:46:01.708Z,17.23
2017-11-24T00:48:29.956Z,13.70
2017-11-24T00:50:57.444Z,7.73
2017-11-24T00:53:25.677Z,7.97
2017-11-24T00:55:53.143Z,9.03
2017-11-24T00:58:20.630Z,7.80
2017-11-24T01:00:48.870Z,6.47
2017-11-24T01:03:16.563Z,9.03
2017-11-24T01:05:44.805Z,6.20
2017-11-24T01:08:12.292Z,7.80
2017-11-24T01:10:40.542Z,4.60
2017-11-24T01:13:08.043Z,10.73
2017-11-24T01:15:36.277Z,5.23
2017-11-24T01:18:04.546Z,5.93
2017-11-24T01:20:32.016Z,5.37
2017-11-24T01:22:59.505Z,5.60
2017-11-24T01:25:27.763Z,5.40
2017-11-24T01:27:55.275Z,6.80
2017-11-24T01:30:22.742Z,5.70
2017-11-24T01:32:50.254Z,6.60
2017-11-24T01:35:19.311Z,5.43
2017-11-24T01:37:46.799Z,10.10
2017-11-24T01:40:15.771Z,6.60
2017-11-24T01:42:44.770Z,9.60
2017-11-24T01:45:13.741Z,9.37
2017-11-24T01:47:41.234Z,5.67
2017-11-24T01:50:08.687Z,6.93
2017-11-24T01:52:36.163Z,4.60
2017-11-24T01:55:04.387Z,4.73
2017-11-24T01:57:31.977Z,5.07
2017-11-24T01:59:59.447Z,4.40
2017-11-24T02:02:27.686Z,11.70
2017-11-24T02:04:55.149Z,5.27
2017-11-24T02:07:22.642Z,13.53
2017-11-24T02:09:50.873Z,4.77
2017-11-24T02:12:18.342Z,7.50
2017-11-24T02:14:45.833Z,8.40
2017-11-24T02:17:14.061Z,7.27
2017-11-24T02:19:41.521Z,6.53
2017-11-24T02:22:08.976Z,6.27
2017-11-24T02:24:36.458Z,5.70
2017-11-24T02:27:03.930Z,5.05
2017-11-24T02:29:31.405Z,5.77
2017-11-24T02:31:58.884Z,4.73
2017-11-24T02:34:26.363Z,6.47
2017-11-24T02:36:53.838Z,6.97
2017-11-24T02:39:21.318Z,11.00
2017-11-24T02:41:49.607Z,7.37
2017-11-24T02:44:17.864Z,8.70
2017-11-24T02:46:45.379Z,5.43
2017-11-24T02:49:12.902Z,6.30
2017-11-24T02:51:41.163Z,6.73
2017-11-24T02:54:08.681Z,7.40
2017-11-24T02:56:36.197Z,6.40
2017-11-24T02:59:04.462Z,7.97
2017-11-24T03:01:32.735Z,6.75
2017-11-24T03:04:01.023Z,10.10
2017-11-24T03:06:29.256Z,7.77
2017-11-24T03:08:56.753Z,7.80
2017-11-24T03:11:24.976Z,5.20
2017-11-24T03:13:52.465Z,5.93
2017-11-24T03:16:19.922Z,5.90
2017-11-24T03:18:47.381Z,6.23
2017-11-24T03:21:14.846Z,7.13
2017-11-24T03:23:42.317Z,6.73
2017-11-24T03:26:10.536Z,5.80
2017-11-24T03:28:37.997Z,5.83
2017-11-24T03:31:05.621Z,5.53
2017-11-24T03:33:33.262Z,7.10
2017-11-24T03:36:00.752Z,6.17
2017-11-24T03:38:28.228Z,6.43
2017-11-24T03:40:56.486Z,7.93
2017-11-24T03:43:23.960Z,5.50
2017-11-24T03:45:51.450Z,5.70
2017-11-24T03:48:19.672Z,4.80
2017-11-24T03:50:47.158Z,6.37
2017-11-24T03:53:14.655Z,7.63
2017-11-24T03:56:02.143Z,5.65
2017-11-24T03:58:29.620Z,5.63
2017-11-24T04:00:57.090Z,5.60
2017-11-24T04:03:24.556Z,6.23
2017-11-24T04:05:52.051Z,9.43
2017-11-24T04:08:19.517Z,6.57
2017-11-24T04:10:47.020Z,6.37
2017-11-24T04:13:14.456Z,5.90
2017-11-24T04:15:41.936Z,6.07
2017-11-24T04:18:09.404Z,5.43
2017-11-24T04:20:37.638Z,9.37
2017-11-24T04:23:05.094Z,7.70
2017-11-24T04:25:32.570Z,5.30
2017-11-24T04:28:00.031Z,6.00
2017-11-24T04:30:27.502Z,6.67
2017-11-24T04:32:54.968Z,8.23
2017-11-24T04:35:23.337Z,7.00
2017-11-24T04:37:50.823Z,7.80
2017-11-24T04:40:19.063Z,6.33
2017-11-24T04:42:46.529Z,7.27
2017-11-24T04:45:14.025Z,6.37
2017-11-24T04:47:41.510Z,5.87
2017-11-24T04:50:09.007Z,6.70
2017-11-24T04:52:36.482Z,7.37
2017-11-24T04:55:04.704Z,8.03
2017-11-24T04:57:32.156Z,6.77
2017-11-24T04:59:59.630Z,6.20
2017-11-24T05:02:27.120Z,6.30
2017-11-24T05:04:55.349Z,8.77
2017-11-24T05:07:22.829Z,13.23
2017-11-24T05:09:51.809Z,6.27
2017-11-24T05:12:19.279Z,7.10
2017-11-24T05:14:46.749Z,6.27
2017-11-24T05:17:15.007Z,7.20
2017-11-24T05:19:42.495Z,6.83
2017-11-24T05:25:04.446Z,7.07
2017-11-24T05:27:32.686Z,7.50
2017-11-24T05:30:00.152Z,6.67
2017-11-24T05:32:27.630Z,6.77
2017-11-24T05:34:55.863Z,5.80
2017-11-24T05:37:23.363Z,6.30
2017-11-24T05:39:51.610Z,7.23
2017-11-24T05:42:19.210Z,6.00
2017-11-24T05:44:47.459Z,9.80
2017-11-24T05:47:14.946Z,8.53
2017-11-24T05:49:43.193Z,5.80
2017-11-24T05:52:10.701Z,7.60
2017-11-24T05:54:38.185Z,5.47
2017-11-24T05:57:05.651Z,9.13
2017-11-24T05:59:33.134Z,5.33
2017-11-24T06:02:00.612Z,7.77
2017-11-24T06:04:28.859Z,12.98
2017-11-24T06:06:56.523Z,10.53
2017-11-24T06:09:24.006Z,10.90
2017-11-24T06:11:52.274Z,7.63
2017-11-24T06:14:20.501Z,6.57
2017-11-24T06:16:47.989Z,8.50
2017-11-24T06:19:15.461Z,6.87
2017-11-24T06:21:43.731Z,8.03
2017-11-24T06:24:11.217Z,10.20
2017-11-24T06:26:38.704Z,7.62
2017-11-24T06:29:06.188Z,8.87
2017-11-24T06:31:33.661Z,7.70
2017-11-24T06:34:01.142Z,9.60
2017-11-24T06:36:29.390Z,7.05
2017-11-24T06:38:59.795Z,7.27
2017-11-24T06:41:27.268Z,6.87
2017-11-24T06:43:54.733Z,12.07
2017-11-24T06:46:22.200Z,6.83
2017-11-24T06:48:50.460Z,9.85
2017-11-24T06:51:17.924Z,8.47
2017-11-24T06:53:45.437Z,12.20
2017-11-24T06:56:12.906Z,9.13
2017-11-24T06:58:42.017Z,7.85
2017-11-24T07:01:09.488Z,7.40
2017-11-24T07:03:36.962Z,7.70
2017-11-24T07:06:05.177Z,7.77
2017-11-24T07:08:32.662Z,11.03
2017-11-24T07:11:00.157Z,11.45
2017-11-24T07:13:28.417Z,8.83
2017-11-24T07:15:55.873Z,7.67
2017-11-24T07:18:23.345Z,8.33
2017-11-24T07:20:51.580Z,8.60
2017-11-24T07:23:19.049Z,8.73
2017-11-24T07:25:46.521Z,13.10
2017-11-24T07:28:13.984Z,12.77
2017-11-24T07:30:42.218Z,9.70
2017-11-24T07:33:09.706Z,9.13
2017-11-24T07:35:37.183Z,11.07
2017-11-24T07:38:05.415Z,14.13
2017-11-24T07:40:32.909Z,10.07
2017-11-24T07:43:01.174Z,12.23
2017-11-24T07:45:28.680Z,12.17
2017-11-24T07:47:56.181Z,16.57
2017-11-24T07:50:23.651Z,10.83
2017-11-24T07:52:51.132Z,11.80
2017-11-24T07:58:09.389Z,14.33
2017-11-24T08:00:37.641Z,11.57
2017-11-24T08:03:05.122Z,14.20
2017-11-24T08:05:33.370Z,13.40
2017-11-24T08:08:00.852Z,15.63
2017-11-24T08:10:29.091Z,13.67
2017-11-24T08:12:56.574Z,12.43
2017-11-24T08:15:24.056Z,16.47
2017-11-24T08:17:52.293Z,21.50
2017-11-24T08:20:19.773Z,15.40
2017-11-24T08:22:48.026Z,13.33
2017-11-24T08:25:15.699Z,10.97
2017-11-24T08:27:43.182Z,11.23
2017-11-24T08:30:10.659Z,11.17
2017-11-24T08:32:38.139Z,12.10
2017-11-24T08:35:05.628Z,10.30
2017-11-24T08:37:33.101Z,9.73
2017-11-24T08:40:01.343Z,13.87
2017-11-24T08:42:28.817Z,10.90
2017-11-24T08:44:56.273Z,9.40
2017-11-24T08:47:29.474Z,10.03
2017-11-24T08:49:56.954Z,9.10
2017-11-24T08:52:25.189Z,9.43
2017-11-24T08:54:52.695Z,11.80
2017-11-24T08:57:20.162Z,9.27
2017-11-24T08:59:47.638Z,9.00
2017-11-24T09:02:15.125Z,9.87
2017-11-24T09:04:42.597Z,11.63
2017-11-24T09:07:10.067Z,10.17
2017-11-24T09:09:38.337Z,16.27
2017-11-24T09:12:06.561Z,10.03
2017-11-24T09:14:34.046Z,13.73
2017-11-24T09:17:01.505Z,17.53
2017-11-24T09:19:28.986Z,14.03
2017-11-24T09:21:57.237Z,15.60
2017-11-24T09:24:24.850Z,10.73
2017-11-24T09:26:53.121Z,7.97
2017-11-24T09:29:20.604Z,17.90
2017-11-24T09:31:48.094Z,13.23
2017-11-24T09:34:16.336Z,17.43
2017-11-24T09:36:44.137Z,11.77
2017-11-24T09:39:11.607Z,9.20
2017-11-24T09:41:39.863Z,19.20
2017-11-24T09:44:07.325Z,9.63
2017-11-24T09:46:34.806Z,17.63
2017-11-24T09:49:03.061Z,11.33
2017-11-24T09:51:30.568Z,12.47
2017-11-24T09:53:58.046Z,12.88
2017-11-24T09:56:26.436Z,8.70
2017-11-24T09:58:53.958Z,7.47
2017-11-24T10:01:21.440Z,6.53
2017-11-24T10:03:48.928Z,8.70
2017-11-24T10:06:16.568Z,9.43
2017-11-24T10:08:44.050Z,7.27
2017-11-24T10:11:11.532Z,12.17
2017-11-24T10:13:39.770Z,7.00
2017-11-24T10:16:07.248Z,6.90
2017-11-24T10:18:35.521Z,6.80
2017-11-24T10:21:10.261Z,7.00
2017-11-24T10:23:38.506Z,6.90
2017-11-24T10:26:06.001Z,8.40
2017-11-24T10:28:34.233Z,12.73
2017-11-24T10:31:01.711Z,6.97
2017-11-24T10:33:29.965Z,7.30
2017-11-24T10:35:57.446Z,15.17
2017-11-24T10:38:24.935Z,6.20
2017-11-24T10:40:58.211Z,6.50
2017-11-24T10:43:26.448Z,7.30
2017-11-24T10:45:53.934Z,12.10
2017-11-24T10:48:21.405Z,6.03
2017-11-24T10:50:49.637Z,5.90
2017-11-24T10:53:17.132Z,7.70
2017-11-24T10:55:45.382Z,9.33
2017-11-24T10:58:12.861Z,8.75
2017-11-24T11:00:40.326Z,5.73
2017-11-24T11:03:07.826Z,10.70
2017-11-24T11:05:35.309Z,23.30
2017-11-24T11:08:02.785Z,7.20
2017-11-24T11:10:30.257Z,11.03
2017-11-24T11:12:57.750Z,9.60
2017-11-24T11:15:25.225Z,10.90
2017-11-24T11:17:52.697Z,14.60
2017-11-24T11:20:20.180Z,10.88
2017-11-24T11:22:47.664Z,7.10
2017-11-24T11:25:15.893Z,6.40
2017-11-24T11:27:43.390Z,13.00
2017-11-24T11:30:12.563Z,9.07
2017-11-24T11:32:40.039Z,6.00
2017-11-24T11:35:08.298Z,11.33
2017-11-24T11:37:35.777Z,11.20
2017-11-24T11:40:04.006Z,7.27
2017-11-24T11:42:31.496Z,7.07
2017-11-24T11:44:58.970Z,15.73
2017-11-24T11:47:27.219Z,8.37
2017-11-24T11:49:54.705Z,9.40
2017-11-24T11:52:22.954Z,6.50
2017-11-24T11:54:51.959Z,9.00
2017-11-24T11:57:20.197Z,5.93
2017-11-24T11:59:47.673Z,6.17
2017-11-24T12:02:15.914Z,5.23
2017-11-24T12:04:43.403Z,7.30
2017-11-24T12:07:10.884Z,9.27
2017-11-24T12:09:38.357Z,7.53
2017-11-24T12:12:06.612Z,5.90
2017-11-24T12:14:34.085Z,6.30
2017-11-24T12:17:02.332Z,6.00
2017-11-24T12:19:29.813Z,5.10
2017-11-24T12:21:58.066Z,13.23
2017-11-24T12:24:25.537Z,5.47
2017-11-24T12:26:53.110Z,5.37
2017-11-24T12:29:21.353Z,3.80
2017-11-24T12:31:48.822Z,5.40
2017-11-24T12:34:16.374Z,6.23
2017-11-24T12:36:43.832Z,9.90
2017-11-24T12:39:11.305Z,4.43
2017-11-24T12:41:38.793Z,5.20
2017-11-24T12:44:06.251Z,7.40
2017-11-24T12:46:33.737Z,3.57
2017-11-24T12:49:01.229Z,6.70
2017-11-24T12:51:28.696Z,4.20
2017-11-24T12:53:56.958Z,4.73
2017-11-24T12:56:24.444Z,5.03
2017-11-24T12:58:52.904Z,5.23
2017-11-24T13:01:20.392Z,3.80
2017-11-24T13:03:47.905Z,3.67
2017-11-24T13:06:15.398Z,3.93
2017-11-24T13:08:42.902Z,3.93
2017-11-24T13:11:10.394Z,5.30
2017-11-24T13:13:37.865Z,6.00
2017-11-24T13:16:06.117Z,5.13
2017-11-24T13:18:33.582Z,5.13
2017-11-24T13:21:01.952Z,5.53
2017-11-24T13:23:29.438Z,5.97
2017-11-24T13:25:57.687Z,8.23
2017-11-24T13:28:25.166Z,4.60
2017-11-24T13:30:53.415Z,4.37
2017-11-24T13:33:21.538Z,4.53
2017-11-24T13:35:49.021Z,5.27
2017-11-24T13:38:16.508Z,5.77
2017-11-24T13:40:44.898Z,6.87
2017-11-24T13:43:12.381Z,8.37
2017-11-24T13:45:40.628Z,7.07
2017-11-24T13:48:08.109Z,6.17
2017-11-24T13:50:37.181Z,6.37
2017-11-24T13:53:04.666Z,6.90
2017-11-24T13:55:33.949Z,7.65
2017-11-24T13:58:02.213Z,6.13
2017-11-24T14:00:29.718Z,5.87
2017-11-24T14:02:57.187Z,9.00
2017-11-24T14:05:24.958Z,4.93
2017-11-24T14:07:52.434Z,4.67
2017-11-24T14:10:19.909Z,4.73
2017-11-24T14:12:47.390Z,5.17
2017-11-24T14:15:15.650Z,4.20
2017-11-24T14:17:43.116Z,8.10
2017-11-24T14:20:11.366Z,4.50
2017-11-24T14:22:38.843Z,4.40
2017-11-24T14:25:06.341Z,5.37
2017-11-24T14:27:33.838Z,3.77
2017-11-24T14:30:01.330Z,5.00
2017-11-24T14:32:29.602Z,5.70
2017-11-24T14:34:58.379Z,6.33
2017-11-24T14:37:26.860Z,6.18
2017-11-24T14:39:55.853Z,7.93
2017-11-24T14:42:24.850Z,14.10
2017-11-24T14:44:52.369Z,17.40
2017-11-24T14:47:19.842Z,9.03
2017-11-24T14:49:47.325Z,7.78
2017-11-24T14:52:14.812Z,8.23
2017-11-24T14:54:42.293Z,6.23
2017-11-24T14:57:09.777Z,7.40
2017-11-24T14:59:38.647Z,8.00
2017-11-24T15:02:06.121Z,8.27
2017-11-24T15:04:33.580Z,9.20
2017-11-24T15:07:01.257Z,7.73
2017-11-24T15:09:29.688Z,14.20
2017-11-24T15:11:57.176Z,9.73
2017-11-24T15:14:24.643Z,8.50
2017-11-24T15:16:52.116Z,6.43
2017-11-24T15:19:19.576Z,7.53
2017-11-24T15:21:47.097Z,9.93
2017-11-24T15:24:14.631Z,7.23
2017-11-24T15:26:42.113Z,11.50
2017-11-24T15:29:09.589Z,6.53
2017-11-24T15:31:37.088Z,6.00
2017-11-24T15:34:05.312Z,5.93
2017-11-24T15:36:32.773Z,6.67
2017-11-24T15:39:00.285Z,6.30
2017-11-24T15:41:27.990Z,6.23
2017-11-24T15:43:55.484Z,5.67
2017-11-24T15:46:23.750Z,4.40
2017-11-24T15:48:51.233Z,4.80
2017-11-24T15:51:18.820Z,4.20
2017-11-24T15:53:46.298Z,7.13
2017-11-24T15:56:13.767Z,4.85
2017-11-24T15:58:41.270Z,7.70
2017-11-24T16:01:08.796Z,7.00
2017-11-24T16:03:36.259Z,4.60
2017-11-24T16:06:03.728Z,6.03
2017-11-24T16:08:31.969Z,15.85
2017-11-24T16:10:59.429Z,5.27
2017-11-24T16:13:27.726Z,4.37
2017-11-24T16:15:55.185Z,4.40
2017-11-24T16:18:24.903Z,4.40
2017-11-24T16:20:55.226Z,7.27
2017-11-24T16:23:22.902Z,6.93
2017-11-24T16:25:50.481Z,11.50
2017-11-24T16:28:17.993Z,13.10
2017-11-24T16:30:45.465Z,15.33
2017-11-24T16:33:13.731Z,18.40
2017-11-24T16:35:41.206Z,15.40
2017-11-24T16:38:09.474Z,12.37
2017-11-24T16:40:37.699Z,11.13
2017-11-24T16:43:05.185Z,10.97
2017-11-24T16:45:33.431Z,9.80
2017-11-24T16:48:00.972Z,5.43
2017-11-24T16:50:28.437Z,3.90
2017-11-24T16:52:55.960Z,10.17
2017-11-24T16:55:24.223Z,5.97
2017-11-24T16:57:52.449Z,4.43
2017-11-24T17:00:21.913Z,4.70
2017-11-24T17:02:50.153Z,6.20
2017-11-24T17:05:17.902Z,9.30
2017-11-24T17:07:45.373Z,13.33
2017-11-24T17:10:12.868Z,4.77
2017-11-24T17:12:41.113Z,5.43
2017-11-24T17:15:08.577Z,6.27
2017-11-24T17:17:36.046Z,5.47
2017-11-24T17:20:03.517Z,4.77
2017-11-24T17:22:31.755Z,5.17
2017-11-24T17:24:59.238Z,4.33
2017-11-24T17:27:27.514Z,3.50
2017-11-24T17:29:54.983Z,3.57
2017-11-24T17:32:23.227Z,3.63
2017-11-24T17:34:50.707Z,3.50
2017-11-24T17:37:18.182Z,5.10
2017-11-24T17:39:46.440Z,5.00
2017-11-24T17:42:13.909Z,9.40
2017-11-24T17:44:42.160Z,5.83
2017-11-24T17:47:09.638Z,10.20
2017-11-24T17:49:37.117Z,5.67
2017-11-24T17:52:04.577Z,8.30
2017-11-24T17:54:32.064Z,5.57
2017-11-24T17:56:59.541Z,5.05
2017-11-24T17:59:27.005Z,6.20
2017-11-24T18:01:54.485Z,4.37
2017-11-24T18:04:21.991Z,5.03
2017-11-24T18:06:49.466Z,4.10
2017-11-24T18:09:16.942Z,7.47
2017-11-24T18:11:44.413Z,6.77
2017-11-24T18:14:12.669Z,9.20
2017-11-24T18:16:46.962Z,5.95
2017-11-24T18:19:14.437Z,7.33
2017-11-24T18:21:41.914Z,6.40
2017-11-24T18:24:09.405Z,9.13
2017-11-24T18:26:36.905Z,9.90
2017-11-24T18:29:04.373Z,10.30
2017-11-24T18:31:31.868Z,13.40
2017-11-24T18:33:59.340Z,9.70
2017-11-24T18:36:26.813Z,10.00
2017-11-24T18:38:54.305Z,12.17
2017-11-24T18:41:21.786Z,12.60
2017-11-24T18:43:49.249Z,11.40
2017-11-24T18:46:17.519Z,19.40
2017-11-24T18:48:45.766Z,17.40
2017-11-24T18:51:13.275Z,15.48
2017-11-24T18:53:40.743Z,14.00
2017-11-24T18:56:08.246Z,22.23
2017-11-24T18:58:37.247Z,20.37
2017-11-24T19:01:06.440Z,31.43
2017-11-24T19:03:33.913Z,21.80
2017-11-24T19:06:01.409Z,8.80
2017-11-24T19:08:28.890Z,12.37
2017-11-24T19:10:56.367Z,10.03
2017-11-24T19:13:23.846Z,10.10
2017-11-24T19:15:51.324Z,6.03
2017-11-24T19:18:18.794Z,7.50
2017-11-24T19:20:46.288Z,6.00
2017-11-24T19:23:14.586Z,6.70
2017-11-24T19:25:42.824Z,7.60
2017-11-24T19:28:10.308Z,8.63
2017-11-24T19:30:37.785Z,9.27
2017-11-24T19:33:05.253Z,9.07
2017-11-24T19:35:33.514Z,12.07
2017-11-24T19:38:01.006Z,11.87
2017-11-24T19:40:28.481Z,7.30
2017-11-24T19:42:55.967Z,6.23
2017-11-24T19:45:23.569Z,4.87
2017-11-24T19:47:51.824Z,5.57
2017-11-24T19:50:19.336Z,8.00
2017-11-24T19:52:46.828Z,6.30
2017-11-24T19:55:14.304Z,6.50
2017-11-24T19:57:41.795Z,7.63
2017-11-24T20:00:09.265Z,10.50
2017-11-24T20:02:36.791Z,7.97
2017-11-24T20:05:05.077Z,7.10
2017-11-24T20:07:32.551Z,6.90
2017-11-24T20:10:00.011Z,7.73
2017-11-24T20:12:28.437Z,7.40
2017-11-24T20:14:57.438Z,7.83
2017-11-24T20:17:24.914Z,6.93
2017-11-24T20:19:53.202Z,6.75
2017-11-24T20:22:20.727Z,6.90
2017-11-24T20:24:48.203Z,7.50
2017-11-24T20:27:16.451Z,6.53
2017-11-24T20:29:43.909Z,6.23
2017-11-24T20:32:11.402Z,7.40
2017-11-24T20:34:39.634Z,8.07
2017-11-24T20:37:07.115Z,7.43
2017-11-24T20:39:34.581Z,6.97
2017-11-24T20:42:02.816Z,7.60
2017-11-24T20:44:30.313Z,7.27
2017-11-24T20:46:58.549Z,6.30
2017-11-24T20:49:26.041Z,5.70
2017-11-24T20:51:53.509Z,5.90
2017-11-24T20:54:21.804Z,5.13
2017-11-24T20:56:50.251Z,5.40
2017-11-24T20:59:17.721Z,5.57
2017-11-24T21:01:45.990Z,4.90
2017-11-24T21:04:13.468Z,5.00
2017-11-24T21:06:42.701Z,5.13
2017-11-24T21:09:10.200Z,5.07
2017-11-24T21:11:37.681Z,4.73
2017-11-24T21:14:05.934Z,5.73
2017-11-24T21:16:33.395Z,6.10
2017-11-24T21:19:00.885Z,9.53
2017-11-24T21:21:28.353Z,6.43
2017-11-24T21:24:02.540Z,7.40
2017-11-24T21:26:30.773Z,6.87
2017-11-24T21:28:58.271Z,7.57
2017-11-24T21:31:26.556Z,7.47
2017-11-24T21:33:54.818Z,11.70
2017-11-24T21:36:23.085Z,9.67
2017-11-24T21:38:51.575Z,9.83
2017-11-24T21:41:19.825Z,15.27
2017-11-24T21:43:47.342Z,8.87
2017-11-24T21:46:14.845Z,9.67
2017-11-24T21:48:42.335Z,6.90
2017-11-24T21:51:10.553Z,9.97
2017-11-24T21:53:38.102Z,10.33
2017-11-24T21:56:05.593Z,19.27
2017-11-24T21:58:33.089Z,21.20
2017-11-24T22:01:02.221Z,13.80
2017-11-24T22:03:29.695Z,8.60
2017-11-24T22:05:57.178Z,8.20
2017-11-24T22:08:24.641Z,9.20
2017-11-24T22:10:52.115Z,6.40
2017-11-24T22:13:20.349Z,6.47
2017-11-24T22:15:48.802Z,6.60
2017-11-24T22:18:16.326Z,10.07
2017-11-24T22:20:44.627Z,8.47
2017-11-24T22:23:12.103Z,6.30
2017-11-24T22:25:45.965Z,6.35
2017-11-24T22:28:14.204Z,5.90
2017-11-24T22:30:41.716Z,5.80
2017-11-24T22:33:09.163Z,7.17
2017-11-24T22:35:37.453Z,7.97
2017-11-24T22:38:04.983Z,6.13
2017-11-24T22:40:32.451Z,6.10
2017-11-24T22:43:00.719Z,6.17
2017-11-24T22:45:28.213Z,5.40
2017-11-24T22:47:55.685Z,5.80
2017-11-24T22:50:23.193Z,4.80
2017-11-24T22:52:51.438Z,6.20
2017-11-24T22:55:18.901Z,6.83
2017-11-24T22:57:46.371Z,4.00
2017-11-24T23:00:23.606Z,3.20
2017-11-24T23:02:51.070Z,5.20
2017-11-24T23:05:18.678Z,3.60
2017-11-24T23:07:46.144Z,4.80
2017-11-24T23:10:13.615Z,3.70
2017-11-24T23:12:41.870Z,4.90
2017-11-24T23:15:09.329Z,3.43
2017-11-24T23:17:36.808Z,2.93
2017-11-24T23:20:05.088Z,2.43
2017-11-24T23:22:33.313Z,3.10
2017-11-24T23:25:00.802Z,2.63
2017-11-24T23:27:29.070Z,2.80
2017-11-24T23:29:56.550Z,2.50
2017-11-24T23:32:24.788Z,3.10
2017-11-24T23:34:52.270Z,3.20
2017-11-24T23:37:20.518Z,2.90
2017-11-24T23:39:47.981Z,2.90
2017-11-24T23:42:16.226Z,2.80
2017-11-24T23:44:43.698Z,2.43
2017-11-24T23:47:11.179Z,4.57
2017-11-24T23:49:39.416Z,3.10
2017-11-24T23:52:06.873Z,3.12
2017-11-24T23:54:34.337Z,3.07
2017-11-24T23:57:01.803Z,2.67
2017-11-24T23:59:29.264Z,2.27
